createdAt,value
2017-12-17T00:01:22.374Z,14.07
2017-12-17T00:03:49.184Z,13.60
2017-12-17T00:06:15.938Z,13.90
2017-12-17T00:08:42.706Z,13.10
2017-12-17T00:11:09.459Z,13.17
2017-12-17T00:13:36.210Z,12.37
2017-12-17T00:16:02.978Z,13.30
2017-12-17T00:18:29.772Z,10.93
2017-12-17T00:20:56.516Z,10.47
2017-12-17T00:23:23.267Z,8.50
2017-12-17T00:25:50.057Z,10.00
2017-12-17T00:28:16.861Z,10.10
2017-12-17T00:30:43.582Z,11.87
2017-12-17T00:33:10.435Z,9.93
2017-12-17T00:35:37.204Z,9.27
2017-12-17T00:38:03.927Z,9.60
2017-12-17T00:40:30.652Z,8.50
2017-12-17T00:42:57.398Z,9.00
2017-12-17T00:45:24.156Z,9.33
2017-12-17T00:47:50.912Z,8.90
2017-12-17T00:50:17.664Z,8.33
2017-12-17T00:52:44.425Z,7.80
2017-12-17T00:55:11.205Z,9.30
2017-12-17T00:57:37.945Z,9.43
2017-12-17T01:00:04.687Z,9.87
2017-12-17T01:02:31.423Z,7.67
2017-12-17T01:04:58.135Z,7.80
2017-12-17T01:07:24.884Z,8.07
2017-12-17T01:09:51.642Z,7.90
2017-12-17T01:12:18.397Z,8.90
2017-12-17T01:14:45.120Z,8.50
2017-12-17T01:17:11.878Z,8.70
2017-12-17T01:19:38.628Z,7.80
2017-12-17T01:22:05.361Z,7.43
2017-12-17T01:24:32.193Z,7.50
2017-12-17T01:26:58.942Z,8.77
2017-12-17T01:29:25.650Z,9.67
2017-12-17T01:31:52.388Z,8.50
2017-12-17T01:34:19.127Z,8.00
2017-12-17T01:36:45.871Z,9.07
2017-12-17T01:39:12.604Z,8.90
2017-12-17T01:41:39.357Z,8.33
2017-12-17T01:44:06.084Z,9.07
2017-12-17T01:46:32.850Z,8.70
2017-12-17T01:48:59.629Z,10.37
2017-12-17T01:51:27.379Z,9.70
2017-12-17T01:53:54.147Z,7.83
2017-12-17T01:56:20.905Z,8.03
2017-12-17T01:58:47.666Z,9.10
2017-12-17T02:01:14.453Z,6.70
2017-12-17T02:03:41.213Z,8.43
2017-12-17T02:06:07.950Z,7.13
2017-12-17T02:08:34.719Z,8.47
2017-12-17T02:11:01.496Z,7.60
2017-12-17T02:13:28.267Z,8.52
2017-12-17T02:15:55.189Z,7.57
2017-12-17T02:18:21.952Z,7.10
2017-12-17T02:20:48.740Z,8.60
2017-12-17T02:23:15.517Z,8.63
2017-12-17T02:25:42.274Z,6.62
2017-12-17T02:28:09.032Z,6.55
2017-12-17T02:30:35.800Z,6.90
2017-12-17T02:33:02.554Z,7.15
2017-12-17T02:35:29.314Z,8.00
2017-12-17T02:37:56.090Z,6.95
2017-12-17T02:40:22.858Z,7.55
2017-12-17T02:42:49.617Z,6.55
2017-12-17T02:45:16.397Z,6.75
2017-12-17T02:47:43.148Z,6.68
2017-12-17T02:50:09.898Z,6.60
2017-12-17T02:52:36.673Z,5.87
2017-12-17T02:55:03.417Z,6.10
2017-12-17T02:57:30.181Z,6.82
2017-12-17T02:59:56.964Z,5.90
2017-12-17T03:02:23.737Z,5.68
2017-12-17T03:04:50.510Z,6.60
2017-12-17T03:07:17.273Z,6.47
2017-12-17T03:09:44.059Z,6.53
2017-12-17T03:12:10.811Z,6.00
2017-12-17T03:14:37.586Z,6.60
2017-12-17T03:17:04.332Z,5.22
2017-12-17T03:19:31.086Z,5.85
2017-12-17T03:21:57.853Z,5.80
2017-12-17T03:24:24.640Z,5.32
2017-12-17T03:26:51.390Z,5.87
2017-12-17T03:29:18.161Z,6.32
2017-12-17T03:31:44.936Z,6.45
2017-12-17T03:34:11.682Z,5.43
2017-12-17T03:36:38.453Z,5.80
2017-12-17T03:39:05.218Z,5.47
2017-12-17T03:41:31.980Z,5.50
2017-12-17T03:43:58.751Z,6.78
2017-12-17T03:46:25.508Z,5.32
2017-12-17T03:48:52.287Z,5.22
2017-12-17T03:51:19.053Z,7.12
2017-12-17T03:53:45.799Z,5.35
2017-12-17T03:56:12.570Z,5.07
2017-12-17T03:58:39.351Z,6.12
2017-12-17T04:01:06.107Z,5.87
2017-12-17T04:03:32.867Z,5.30
2017-12-17T04:05:59.647Z,6.57
2017-12-17T04:08:26.419Z,5.78
2017-12-17T04:10:53.175Z,5.62
2017-12-17T04:13:19.948Z,6.03
2017-12-17T04:15:46.800Z,5.72
2017-12-17T04:18:13.589Z,6.45
2017-12-17T04:20:41.294Z,6.20
2017-12-17T04:23:08.053Z,6.10
2017-12-17T04:25:34.804Z,5.47
2017-12-17T04:28:01.577Z,6.05
2017-12-17T04:30:28.326Z,4.55
2017-12-17T04:32:55.079Z,5.47
2017-12-17T04:35:21.875Z,4.95
2017-12-17T04:37:48.626Z,5.85
2017-12-17T04:40:15.383Z,5.35
2017-12-17T04:42:42.157Z,5.60
2017-12-17T04:45:08.922Z,6.20
2017-12-17T04:47:35.691Z,8.82
2017-12-17T04:50:02.433Z,5.57
2017-12-17T04:52:29.175Z,5.87
2017-12-17T04:54:55.921Z,5.35
2017-12-17T04:57:22.688Z,6.22
2017-12-17T04:59:49.459Z,5.62
2017-12-17T05:02:16.312Z,6.15
2017-12-17T05:04:43.069Z,5.80
2017-12-17T05:07:09.823Z,6.20
2017-12-17T05:09:36.570Z,6.07
2017-12-17T05:12:03.346Z,6.80
2017-12-17T05:14:30.096Z,7.07
2017-12-17T05:16:56.859Z,6.65
2017-12-17T05:19:23.611Z,6.37
2017-12-17T05:21:50.366Z,5.45
2017-12-17T05:24:17.123Z,6.05
2017-12-17T05:26:43.869Z,5.57
2017-12-17T05:29:10.645Z,6.60
2017-12-17T05:31:37.403Z,5.60
2017-12-17T05:34:04.230Z,6.00
2017-12-17T05:36:30.994Z,6.10
2017-12-17T05:38:57.723Z,5.85
2017-12-17T05:41:24.501Z,5.72
2017-12-17T05:43:51.302Z,5.35
2017-12-17T05:46:18.061Z,5.90
2017-12-17T05:48:44.878Z,6.97
2017-12-17T05:51:11.597Z,5.40
2017-12-17T05:53:38.354Z,5.75
2017-12-17T05:56:05.118Z,5.68
2017-12-17T05:58:31.894Z,6.25
2017-12-17T06:00:58.648Z,6.50
2017-12-17T06:03:25.432Z,5.85
2017-12-17T06:05:52.176Z,5.93
2017-12-17T06:08:18.924Z,6.12
2017-12-17T06:10:45.704Z,6.75
2017-12-17T06:13:12.446Z,6.82
2017-12-17T06:15:39.200Z,6.12
2017-12-17T06:18:06.004Z,6.43
2017-12-17T06:20:32.774Z,7.37
2017-12-17T06:22:59.583Z,6.18
2017-12-17T06:25:26.403Z,5.95
2017-12-17T06:27:53.155Z,6.03
2017-12-17T06:30:19.902Z,6.85
2017-12-17T06:32:46.671Z,6.53
2017-12-17T06:35:13.414Z,6.05
2017-12-17T06:37:40.177Z,7.80
2017-12-17T06:40:06.964Z,7.35
2017-12-17T06:42:33.731Z,6.80
2017-12-17T06:45:00.491Z,6.90
2017-12-17T06:47:27.266Z,6.55
2017-12-17T06:49:54.024Z,6.95
2017-12-17T06:52:20.754Z,5.80
2017-12-17T06:54:47.515Z,7.10
2017-12-17T06:57:14.286Z,6.65
2017-12-17T06:59:41.064Z,7.25
2017-12-17T07:02:07.870Z,6.15
2017-12-17T07:04:34.602Z,6.28
2017-12-17T07:07:01.350Z,6.37
2017-12-17T07:09:28.111Z,6.80
2017-12-17T07:11:54.901Z,6.43
2017-12-17T07:14:21.669Z,6.45
2017-12-17T07:16:48.430Z,7.47
2017-12-17T07:19:15.190Z,6.60
2017-12-17T07:21:41.967Z,7.15
2017-12-17T07:24:08.728Z,6.43
2017-12-17T07:26:35.452Z,6.57
2017-12-17T07:29:02.227Z,6.12
2017-12-17T07:31:29.047Z,6.50
2017-12-17T07:33:55.864Z,7.80
2017-12-17T07:36:22.613Z,5.82
2017-12-17T07:38:49.386Z,7.65
2017-12-17T07:41:16.447Z,7.70
2017-12-17T07:43:43.199Z,9.63
2017-12-17T07:46:10.024Z,8.65
2017-12-17T07:48:36.770Z,9.35
2017-12-17T07:51:03.538Z,8.82
2017-12-17T07:53:30.378Z,9.82
2017-12-17T07:55:57.173Z,9.88
2017-12-17T07:58:23.980Z,10.00
2017-12-17T08:00:50.767Z,9.68
2017-12-17T08:03:17.521Z,9.77
2017-12-17T08:05:44.294Z,10.48
2017-12-17T08:08:11.084Z,10.43
2017-12-17T08:10:37.850Z,8.70
2017-12-17T08:13:04.665Z,9.35
2017-12-17T08:15:31.445Z,10.25
2017-12-17T08:17:58.199Z,8.98
2017-12-17T08:20:24.982Z,9.73
2017-12-17T08:22:51.831Z,10.07
2017-12-17T08:25:18.604Z,9.93
2017-12-17T08:27:45.436Z,10.80
2017-12-17T08:30:12.228Z,9.82
2017-12-17T08:32:38.996Z,11.30
2017-12-17T08:35:05.809Z,11.32
2017-12-17T08:37:32.594Z,11.05
2017-12-17T08:39:59.362Z,12.00
2017-12-17T08:42:26.140Z,12.85
2017-12-17T08:44:52.932Z,13.10
2017-12-17T08:47:19.689Z,14.80
2017-12-17T08:49:47.337Z,12.98
2017-12-17T08:52:14.449Z,15.77
2017-12-17T08:54:41.287Z,16.48
2017-12-17T08:57:08.062Z,15.80
2017-12-17T08:59:34.856Z,16.55
2017-12-17T09:02:01.616Z,14.80
2017-12-17T09:04:28.395Z,13.70
2017-12-17T09:06:55.160Z,12.70
2017-12-17T09:09:21.985Z,12.93
2017-12-17T09:11:48.715Z,11.90
2017-12-17T09:14:15.463Z,12.27
2017-12-17T09:16:42.226Z,12.98
2017-12-17T09:19:08.983Z,14.40
2017-12-17T09:21:35.769Z,14.23
2017-12-17T09:24:02.543Z,13.53
2017-12-17T09:26:29.314Z,13.37
2017-12-17T09:28:56.083Z,12.23
2017-12-17T09:31:22.834Z,12.10
2017-12-17T09:33:49.604Z,13.63
2017-12-17T09:36:16.423Z,13.93
2017-12-17T09:38:43.199Z,12.80
2017-12-17T09:41:09.945Z,13.20
2017-12-17T09:43:36.722Z,13.73
2017-12-17T09:46:03.488Z,13.83
2017-12-17T09:48:30.266Z,12.80
2017-12-17T09:50:57.020Z,13.30
2017-12-17T09:53:23.802Z,13.43
2017-12-17T09:55:50.606Z,14.83
2017-12-17T09:58:17.366Z,13.87
2017-12-17T10:00:44.214Z,14.63
2017-12-17T10:03:10.938Z,16.37
2017-12-17T10:05:37.732Z,18.30
2017-12-17T10:08:04.504Z,17.97
2017-12-17T10:10:31.285Z,18.60
2017-12-17T10:12:58.039Z,18.87
2017-12-17T10:15:24.816Z,19.53
2017-12-17T10:17:51.580Z,19.17
2017-12-17T10:20:18.358Z,17.00
2017-12-17T10:22:45.119Z,15.73
2017-12-17T10:25:11.860Z,18.70
2017-12-17T10:27:38.640Z,16.73
2017-12-17T10:30:05.400Z,16.17
2017-12-17T10:32:32.157Z,14.60
2017-12-17T10:34:58.931Z,15.80
2017-12-17T10:37:25.687Z,16.27
2017-12-17T10:40:02.887Z,18.50
2017-12-17T10:42:29.656Z,16.90
2017-12-17T10:44:56.439Z,16.07
2017-12-17T10:47:23.219Z,16.70
2017-12-17T10:49:50.014Z,15.47
2017-12-17T10:52:16.771Z,15.77
2017-12-17T10:54:43.538Z,15.70
2017-12-17T10:57:10.301Z,15.10
2017-12-17T10:59:37.070Z,14.70
2017-12-17T11:02:03.870Z,13.23
2017-12-17T11:04:30.661Z,13.10
2017-12-17T11:06:57.403Z,12.83
2017-12-17T11:09:24.167Z,13.57
2017-12-17T11:11:50.927Z,13.60
2017-12-17T11:14:17.720Z,13.33
2017-12-17T11:16:44.495Z,12.73
2017-12-17T11:19:11.284Z,12.87
2017-12-17T11:21:38.042Z,12.67
2017-12-17T11:24:04.797Z,12.80
2017-12-17T11:26:31.558Z,12.90
2017-12-17T11:28:58.320Z,14.23
2017-12-17T11:31:25.102Z,14.60
2017-12-17T11:33:51.939Z,13.70
2017-12-17T11:36:42.965Z,13.23
2017-12-17T11:39:32.299Z,12.23
2017-12-17T11:42:10.342Z,13.17
2017-12-17T11:44:37.138Z,13.23
2017-12-17T11:47:03.899Z,12.10
2017-12-17T11:49:30.696Z,11.20
2017-12-17T11:51:57.456Z,10.70
2017-12-17T11:54:24.228Z,11.20
2017-12-17T11:56:50.987Z,9.40
2017-12-17T11:59:17.732Z,8.90
2017-12-17T12:01:44.484Z,11.10
2017-12-17T12:04:11.238Z,9.80
2017-12-17T12:06:37.995Z,9.30
2017-12-17T12:09:04.792Z,6.47
2017-12-17T12:11:31.565Z,6.43
2017-12-17T12:13:58.304Z,4.77
2017-12-17T12:16:25.082Z,3.90
2017-12-17T12:18:51.834Z,4.00
2017-12-17T12:21:18.614Z,4.53
2017-12-17T12:23:45.362Z,4.00
2017-12-17T12:26:12.132Z,4.40
2017-12-17T12:28:38.886Z,4.63
2017-12-17T12:31:05.660Z,5.60
2017-12-17T12:33:32.450Z,6.00
2017-12-17T12:35:59.201Z,5.60
2017-12-17T12:38:25.938Z,4.17
2017-12-17T12:40:52.689Z,5.50
2017-12-17T12:43:19.435Z,4.90
2017-12-17T12:45:46.161Z,6.13
2017-12-17T12:48:12.926Z,6.03
2017-12-17T12:50:39.693Z,5.70
2017-12-17T12:53:06.435Z,5.37
2017-12-17T12:55:33.186Z,5.40
2017-12-17T12:57:59.926Z,6.27
2017-12-17T13:00:26.678Z,6.30
2017-12-17T13:02:53.433Z,6.50
2017-12-17T13:05:20.185Z,5.40
2017-12-17T13:07:46.922Z,5.80
2017-12-17T13:10:13.894Z,6.03
2017-12-17T13:12:40.656Z,6.10
2017-12-17T13:15:07.393Z,5.40
2017-12-17T13:17:34.147Z,6.00
2017-12-17T13:20:00.923Z,5.30
2017-12-17T13:22:27.740Z,5.73
2017-12-17T13:24:54.510Z,5.40
2017-12-17T13:27:21.326Z,4.53
2017-12-17T13:29:48.065Z,5.73
2017-12-17T13:32:15.603Z,5.10
2017-12-17T13:34:42.313Z,5.67
2017-12-17T13:37:09.254Z,4.67
2017-12-17T13:39:36.020Z,5.80
2017-12-17T13:42:02.960Z,5.50
2017-12-17T13:44:29.752Z,5.20
2017-12-17T13:46:56.479Z,5.50
2017-12-17T13:49:23.236Z,5.13
2017-12-17T13:51:49.977Z,5.33
2017-12-17T13:54:16.767Z,4.70
2017-12-17T13:56:43.579Z,4.10
2017-12-17T13:59:10.354Z,4.30
2017-12-17T14:01:37.118Z,4.83
2017-12-17T14:04:03.849Z,4.00
2017-12-17T14:06:30.597Z,4.20
2017-12-17T14:08:57.351Z,4.60
2017-12-17T14:11:24.107Z,4.63
2017-12-17T14:13:50.855Z,3.90
2017-12-17T14:16:17.614Z,4.10
2017-12-17T14:18:44.401Z,3.90
2017-12-17T14:21:11.167Z,4.43
2017-12-17T14:23:37.931Z,3.70
2017-12-17T14:26:04.669Z,4.60
2017-12-17T14:28:31.409Z,3.70
2017-12-17T14:30:58.157Z,4.73
2017-12-17T14:33:24.887Z,4.30
2017-12-17T14:35:51.646Z,4.60
2017-12-17T14:38:37.180Z,3.83
2017-12-17T14:41:03.939Z,3.10
2017-12-17T14:43:30.741Z,4.30
2017-12-17T14:45:57.529Z,3.90
2017-12-17T14:48:24.302Z,3.20
2017-12-17T14:50:51.042Z,4.00
2017-12-17T14:53:17.803Z,4.50
2017-12-17T14:55:44.544Z,4.30
2017-12-17T14:58:11.290Z,3.50
2017-12-17T15:00:38.031Z,3.50
2017-12-17T15:03:04.769Z,3.67
2017-12-17T15:05:31.525Z,3.83
2017-12-17T15:07:58.290Z,3.70
2017-12-17T15:10:25.030Z,4.03
2017-12-17T15:12:51.790Z,3.60
2017-12-17T15:15:18.575Z,3.37
2017-12-17T15:17:45.327Z,3.50
2017-12-17T15:20:12.090Z,3.80
2017-12-17T15:22:38.859Z,3.90
2017-12-17T15:25:05.616Z,3.87
2017-12-17T15:27:32.341Z,4.80
2017-12-17T15:29:59.091Z,3.80
2017-12-17T15:32:26.463Z,4.70
2017-12-17T15:34:56.126Z,4.70
2017-12-17T15:40:00.829Z,4.63
2017-12-17T15:42:27.579Z,4.37
2017-12-17T15:44:54.368Z,4.83
2017-12-17T15:47:21.116Z,4.37
2017-12-17T15:49:47.865Z,4.77
2017-12-17T15:52:14.621Z,4.67
2017-12-17T15:54:41.373Z,5.00
2017-12-17T15:57:08.133Z,4.13
2017-12-17T15:59:34.900Z,4.60
2017-12-17T16:02:01.641Z,6.07
2017-12-17T16:07:33.166Z,6.30
2017-12-17T16:10:12.822Z,6.10
2017-12-17T16:12:43.917Z,6.63
2017-12-17T16:15:30.806Z,6.20
2017-12-17T16:18:12.335Z,6.47
2017-12-17T16:20:57.806Z,6.80
2017-12-17T16:23:47.950Z,7.50
2017-12-17T16:26:30.100Z,9.10
2017-12-17T16:29:19.768Z,8.37
2017-12-17T16:31:57.198Z,9.60
2017-12-17T16:34:51.168Z,10.25
2017-12-17T16:37:40.726Z,11.93
2017-12-17T16:40:18.283Z,10.37
2017-12-17T16:43:02.374Z,11.25
2017-12-17T16:45:50.474Z,10.75
2017-12-17T16:48:31.611Z,9.57
2017-12-17T16:51:12.697Z,10.30
2017-12-17T16:54:00.448Z,9.75
2017-12-17T16:56:27.185Z,10.43
2017-12-17T16:58:53.936Z,11.23
2017-12-17T17:01:20.699Z,12.13
2017-12-17T17:03:47.463Z,11.20
2017-12-17T17:06:14.259Z,11.73
2017-12-17T17:08:40.993Z,10.77
2017-12-17T17:11:07.707Z,10.77
2017-12-17T17:13:34.462Z,11.48
2017-12-17T17:16:01.195Z,12.37
2017-12-17T17:18:27.931Z,11.63
2017-12-17T17:21:01.836Z,11.93
2017-12-17T17:23:38.317Z,10.47
2017-12-17T17:26:13.817Z,7.45
2017-12-17T17:28:51.047Z,7.15
2017-12-17T17:31:26.827Z,8.38
2017-12-17T17:33:55.243Z,7.10
2017-12-17T17:36:28.452Z,6.97
2017-12-17T17:38:59.441Z,6.25
2017-12-17T17:41:31.611Z,6.25
2017-12-17T17:44:04.975Z,7.53
2017-12-17T17:46:38.563Z,6.90
2017-12-17T17:49:13.217Z,7.03
2017-12-17T17:51:46.465Z,7.35
2017-12-17T17:54:19.434Z,6.68
2017-12-17T17:56:52.006Z,5.70
2017-12-17T17:59:29.141Z,5.68
2017-12-17T18:02:00.328Z,5.18
2017-12-17T18:04:31.711Z,5.68
2017-12-17T18:07:06.552Z,5.97
2017-12-17T18:09:39.070Z,4.93
2017-12-17T18:12:12.206Z,5.47
2017-12-17T18:14:47.022Z,5.55
2017-12-17T18:17:16.780Z,4.07
2017-12-17T18:19:54.896Z,4.90
2017-12-17T18:22:30.325Z,4.32
2017-12-17T18:25:03.520Z,4.20
2017-12-17T18:27:32.611Z,3.53
2017-12-17T18:30:01.678Z,3.67
2017-12-17T18:32:29.072Z,4.00
2017-12-17T18:35:04.386Z,4.43
2017-12-17T18:37:40.649Z,3.35
2017-12-17T18:40:11.321Z,4.10
2017-12-17T18:42:45.551Z,3.00
2017-12-17T18:45:22.071Z,2.50
2017-12-17T18:48:01.832Z,2.78
2017-12-17T18:50:42.474Z,3.58
2017-12-17T18:56:07.929Z,3.65
2017-12-17T18:58:46.653Z,3.50
2017-12-17T19:01:18.025Z,3.97
2017-12-17T19:03:48.569Z,4.75
2017-12-17T19:09:57.692Z,3.90
2017-12-17T19:12:49.974Z,4.15
2017-12-17T19:15:22.542Z,2.58
2017-12-17T19:17:49.291Z,2.22
2017-12-17T19:20:25.226Z,2.37
2017-12-17T19:26:20.639Z,1.92
2017-12-17T19:29:09.503Z,2.80
2017-12-17T19:31:55.861Z,2.72
2017-12-17T19:34:46.293Z,2.90
2017-12-17T19:37:33.338Z,2.67
2017-12-17T19:40:19.084Z,4.20
2017-12-17T19:42:58.977Z,5.50
2017-12-17T19:45:37.250Z,5.78
2017-12-17T19:48:16.091Z,4.97
2017-12-17T19:50:42.841Z,5.90
2017-12-17T19:58:59.247Z,4.78
2017-12-17T20:01:48.713Z,4.45
2017-12-17T20:04:24.611Z,4.20
2017-12-17T20:07:06.998Z,4.60
2017-12-17T20:09:44.484Z,3.92
2017-12-17T20:12:11.230Z,4.28
2017-12-17T20:14:37.970Z,3.95
2017-12-17T20:17:04.707Z,4.40
2017-12-17T20:19:31.500Z,4.90
2017-12-17T20:21:58.275Z,4.28
2017-12-17T20:24:25.034Z,3.70
2017-12-17T20:27:09.880Z,3.72
2017-12-17T20:29:36.662Z,3.00
2017-12-17T20:32:03.460Z,3.10
2017-12-17T20:34:30.223Z,2.90
2017-12-17T20:36:57.001Z,3.28
2017-12-17T20:39:23.738Z,3.22
2017-12-17T20:41:50.473Z,3.85
2017-12-17T20:44:17.215Z,3.55
2017-12-17T20:46:43.961Z,3.00
2017-12-17T20:49:10.709Z,2.87
2017-12-17T20:51:37.561Z,3.90
2017-12-17T20:54:04.344Z,2.95
2017-12-17T20:56:31.093Z,2.62
2017-12-17T20:58:57.932Z,3.60
2017-12-17T21:01:24.677Z,3.15
2017-12-17T21:03:51.402Z,4.57
2017-12-17T21:06:18.141Z,4.70
2017-12-17T21:08:44.897Z,5.10
2017-12-17T21:11:11.633Z,5.62
2017-12-17T21:13:38.370Z,5.37
2017-12-17T21:16:05.135Z,5.10
2017-12-17T21:18:31.882Z,5.03
2017-12-17T21:20:58.608Z,5.30
2017-12-17T21:23:25.334Z,5.32
2017-12-17T21:25:52.076Z,5.75
2017-12-17T21:28:18.824Z,5.43
2017-12-17T21:30:45.558Z,5.43
2017-12-17T21:33:12.279Z,6.57
2017-12-17T21:35:39.055Z,5.25
2017-12-17T21:38:05.906Z,5.05
2017-12-17T21:40:32.724Z,6.05
2017-12-17T21:42:59.439Z,5.87
2017-12-17T21:45:26.178Z,6.40
2017-12-17T21:47:52.965Z,5.37
2017-12-17T21:50:19.698Z,6.57
2017-12-17T21:52:46.930Z,6.47
2017-12-17T21:55:13.658Z,6.47
2017-12-17T21:57:40.366Z,6.90
2017-12-17T22:00:07.097Z,6.00
2017-12-17T22:02:33.821Z,6.45
2017-12-17T22:05:00.755Z,6.85
2017-12-17T22:07:27.505Z,7.60
2017-12-17T22:09:54.235Z,6.22
2017-12-17T22:12:20.969Z,6.55
2017-12-17T22:14:47.723Z,6.25
2017-12-17T22:17:14.455Z,5.93
2017-12-17T22:19:41.213Z,6.43
2017-12-17T22:22:07.982Z,7.07
2017-12-17T22:24:34.708Z,6.50
2017-12-17T22:27:01.468Z,7.20
2017-12-17T22:29:28.199Z,6.70
2017-12-17T22:31:54.961Z,6.22
2017-12-17T22:34:21.719Z,6.57
2017-12-17T22:36:48.465Z,6.57
2017-12-17T22:39:15.190Z,7.53
2017-12-17T22:41:41.914Z,7.70
2017-12-17T22:44:08.661Z,6.20
2017-12-17T22:46:35.420Z,5.70
2017-12-17T22:49:02.156Z,6.65
2017-12-17T22:51:28.918Z,6.07
2017-12-17T22:53:55.649Z,4.75
2017-12-17T22:56:22.376Z,5.28
2017-12-17T22:58:49.144Z,5.57
2017-12-17T23:01:15.870Z,5.75
2017-12-17T23:03:42.589Z,5.65
2017-12-17T23:06:09.389Z,5.55
2017-12-17T23:08:36.112Z,5.75
2017-12-17T23:11:02.842Z,5.75
2017-12-17T23:13:29.587Z,5.55
2017-12-17T23:15:56.321Z,6.20
2017-12-17T23:18:23.037Z,4.65
2017-12-17T23:20:49.771Z,5.18
2017-12-17T23:23:16.506Z,4.47
2017-12-17T23:25:43.234Z,4.65
2017-12-17T23:28:09.982Z,4.30
2017-12-17T23:30:37.598Z,4.37
2017-12-17T23:33:04.349Z,4.20
2017-12-17T23:35:31.073Z,4.75
2017-12-17T23:37:57.794Z,5.93
2017-12-17T23:40:24.515Z,4.50
2017-12-17T23:42:51.274Z,5.50
2017-12-17T23:45:17.978Z,5.45
2017-12-17T23:47:44.706Z,5.72
2017-12-17T23:50:11.439Z,6.28
2017-12-17T23:52:38.220Z,6.00
2017-12-17T23:55:04.955Z,5.10
2017-12-17T23:57:31.700Z,6.07
2017-12-17T23:59:58.416Z,6.40
